Keret — UAEH — position and weather

sailwx.info

Track history (hours):
 
Tides and Currents Weather Stations Pressure Air Temp Water Temp Dewpoint Dewpoint Depression Visibility Wind Speed Wind Dir Waves Ship Positions

Keret

Last reported at 2015-Mar-27 15:16 UTC. Time now 2015-Apr-01 16:32 UTC.
Position N 55°34' E 015°15'.

Length 82 m; draft 3.2 m.

Type: Cargo ship. MMSI: 273333000.

Date/timePositionNaut miles runAvg speedWind from/ knotsBaromVisibWave heightAir tempDewpointWater temp
2015-Mar-27 15:16N 55°34' E 015°15'7 9.5
2015-Mar-27 14:32N 55°31' E 015°05'9 9.4
2015-Mar-27 13:33N 55°26' E 014°50'10 9.9
2015-Mar-27 12:33N 55°20' E 014°36'11 9.8
2015-Mar-27 11:28N 55°12' E 014°24'32 9.6
2015-Mar-27 08:10N 54°56' E 013°37'610.0
2015-Mar-27 07:33N 54°54' E 013°27'12 9.9
2015-Mar-27 06:19N 54°50' E 013°07'2010.0
2015-Mar-27 04:20N 54°42' E 012°36'8 9.8
2015-Mar-27 03:33N 54°37' E 012°25'9 9.1
2015-Mar-27 02:33N 54°30' E 012°16'8 8.5
2015-Mar-27 01:33N 54°24' E 012°05'10 9.8
2015-Mar-27 00:33N 54°24' E 011°48'9 9.3
2015-Mar-26 23:33N 54°29' E 011°33'9 9.5
2015-Mar-26 22:33N 54°33' E 011°19'9 9.2
2015-Mar-26 21:32N 54°35' E 011°03'29 9.8
2015-Mar-26 18:33N 54°27' E 010°15'6 6.0
2015-Mar-26 17:33N 54°22' E 010°09'3 2.9
2015-Mar-26 16:34N 54°22' E 010°04'8 7.7
2015-Mar-26 15:33N 54°22' E 009°50'8 7.8
2015-Mar-26 14:31N 54°17' E 009°39'15 6.2
2015-Mar-26 12:07N 54°08' E 009°20'5 8.2
2015-Mar-26 11:33N 54°03' E 009°18'7 6.6
2015-Mar-26 10:34N 53°57' E 009°14'5 5.0
2015-Mar-26 09:33N 53°53' E 009°08'3 2.6
2015-Mar-26 08:33N 53°53' E 009°04'5 4.7
2015-Mar-26 07:33N 53°51' E 008°57'8 8.0
2015-Mar-26 06:34N 53°52' E 008°44'9 8.6
2015-Mar-26 05:33N 53°58' E 008°33'9 9.2
2015-Mar-26 04:33N 53°59' E 008°18'1310.1
2015-Mar-26 03:19N 53°57' E 007°57'810.8
2015-Mar-26 02:33N 53°55' E 007°43'1111.1
2015-Mar-26 01:33N 53°53' E 007°25'5711.5
2015-Mar-25 20:34N 53°38' E 005°51'1110.5
2015-Mar-25 19:34N 53°35' E 005°34'10 9.7
2015-Mar-25 18:33N 53°31' E 005°19'9 9.1
2015-Mar-25 17:34N 53°29' E 005°04'9 8.7
2015-Mar-25 16:31N 53°25' E 004°50'  
2015-Mar-21 07:26N 53°30' E 004°46'7 7.6
2015-Mar-21 06:31N 53°33' E 004°57'8 7.8
2015-Mar-21 05:32N 53°35' E 005°09'8 8.2
2015-Mar-21 04:33N 53°38' E 005°22'9 9.4
2015-Mar-21 03:33N 53°41' E 005°37'1010.1
2015-Mar-21 02:32N 53°45' E 005°53'56 8.8
2015-Mar-20 20:12N 53°59' E 007°24'5 7.9
2015-Mar-20 19:33N 54°01' E 007°33'8 8.4
2015-Mar-20 18:33N 54°02' E 007°47'10 9.7
2015-Mar-20 17:33N 54°01' E 008°03'1511.2
2015-Mar-20 16:14N 53°59' E 008°28'811.8
2015-Mar-20 15:33N 53°56' E 008°40'1010.1
2015-Mar-20 14:33N 53°51' E 008°55'8 8.4
2015-Mar-20 13:33N 53°54' E 009°09'0 0.4
2015-Mar-20 12:33N 53°54' E 009°09'2 2.1
2015-Mar-20 11:33N 53°55' E 009°12'6 6.4
2015-Mar-20 10:33N 54°01' E 009°18'8 6.9
2015-Mar-20 09:22N 54°09' E 009°21'6 6.4
2015-Mar-20 08:23N 54°11' E 009°31'6 5.1
2015-Mar-20 07:10N 54°16' E 009°38'4 6.7
2015-Mar-20 06:31N 54°19' E 009°43'7 7.3
2015-Mar-20 05:32N 54°21' E 009°55'7 7.5
2015-Mar-20 04:33N 54°22' E 010°07'2 1.5
2015-Mar-20 03:33N 54°22' E 010°10'5 4.9
2015-Mar-20 02:33N 54°26' E 010°14'9 9.2
2015-Mar-20 01:33N 54°32' E 010°26'19 9.6
2015-Mar-19 23:33N 54°36' E 010°59'1010.3
2015-Mar-19 22:33N 54°35' E 011°16'1110.9
2015-Mar-19 21:33N 54°30' E 011°33'10 9.6
2015-Mar-19 20:33N 54°27' E 011°49'10 9.8
2015-Mar-19 19:33N 54°27' E 012°06'12 9.5
2015-Mar-19 18:19N 54°37' E 012°16'58 9.7
2015-Mar-19 12:22N 55°01' E 013°47'8 9.7
2015-Mar-19 11:33N 55°04' E 014°00'9 9.3
2015-Mar-19 10:33N 55°11' E 014°12'10 9.7
2015-Mar-19 09:33N 55°18' E 014°23'10 9.9
2015-Mar-19 08:33N 55°25' E 014°34'10 9.9
2015-Mar-19 07:33N 55°31' E 014°49'10 9.6
2015-Mar-19 06:33N 55°35' E 015°04'11 9.9
2015-Mar-19 05:29N 55°41' E 015°20'  
Track history (hours):
 
Tides and Currents Weather Stations Pressure Air Temp Water Temp Dewpoint Dewpoint Depression Visibility Wind Speed Wind Dir Waves Ship Positions

Keret

Last reported at 2015-Mar-27 15:16 UTC. Time now 2015-Apr-01 16:32 UTC.
Position N 55°34' E 015°15'.

Length 82 m; draft 3.2 m.

Type: Cargo ship. MMSI: 273333000.

Date/timePositionNaut miles runAvg speedWind from/ knotsBaromVisibWave heightAir tempDewpointWater temp
2015-Mar-27 15:16N 55°34' E 015°15'7 9.5
2015-Mar-27 14:32N 55°31' E 015°05'9 9.4
2015-Mar-27 13:33N 55°26' E 014°50'10 9.9
2015-Mar-27 12:33N 55°20' E 014°36'11 9.8
2015-Mar-27 11:28N 55°12' E 014°24'32 9.6
2015-Mar-27 08:10N 54°56' E 013°37'610.0
2015-Mar-27 07:33N 54°54' E 013°27'12 9.9
2015-Mar-27 06:19N 54°50' E 013°07'2010.0
2015-Mar-27 04:20N 54°42' E 012°36'8 9.8
2015-Mar-27 03:33N 54°37' E 012°25'9 9.1
2015-Mar-27 02:33N 54°30' E 012°16'8 8.5
2015-Mar-27 01:33N 54°24' E 012°05'10 9.8
2015-Mar-27 00:33N 54°24' E 011°48'9 9.3
2015-Mar-26 23:33N 54°29' E 011°33'9 9.5
2015-Mar-26 22:33N 54°33' E 011°19'9 9.2
2015-Mar-26 21:32N 54°35' E 011°03'29 9.8
2015-Mar-26 18:33N 54°27' E 010°15'6 6.0
2015-Mar-26 17:33N 54°22' E 010°09'3 2.9
2015-Mar-26 16:34N 54°22' E 010°04'8 7.7
2015-Mar-26 15:33N 54°22' E 009°50'8 7.8
2015-Mar-26 14:31N 54°17' E 009°39'15 6.2
2015-Mar-26 12:07N 54°08' E 009°20'5 8.2
2015-Mar-26 11:33N 54°03' E 009°18'7 6.6
2015-Mar-26 10:34N 53°57' E 009°14'5 5.0
2015-Mar-26 09:33N 53°53' E 009°08'3 2.6
2015-Mar-26 08:33N 53°53' E 009°04'5 4.7
2015-Mar-26 07:33N 53°51' E 008°57'8 8.0
2015-Mar-26 06:34N 53°52' E 008°44'9 8.6
2015-Mar-26 05:33N 53°58' E 008°33'9 9.2
2015-Mar-26 04:33N 53°59' E 008°18'1310.1
2015-Mar-26 03:19N 53°57' E 007°57'810.8
2015-Mar-26 02:33N 53°55' E 007°43'1111.1
2015-Mar-26 01:33N 53°53' E 007°25'5711.5
2015-Mar-25 20:34N 53°38' E 005°51'1110.5
2015-Mar-25 19:34N 53°35' E 005°34'10 9.7
2015-Mar-25 18:33N 53°31' E 005°19'9 9.1
2015-Mar-25 17:34N 53°29' E 005°04'9 8.7
2015-Mar-25 16:31N 53°25' E 004°50'  
2015-Mar-21 07:26N 53°30' E 004°46'7 7.6
2015-Mar-21 06:31N 53°33' E 004°57'8 7.8
2015-Mar-21 05:32N 53°35' E 005°09'8 8.2
2015-Mar-21 04:33N 53°38' E 005°22'9 9.4
2015-Mar-21 03:33N 53°41' E 005°37'1010.1
2015-Mar-21 02:32N 53°45' E 005°53'56 8.8
2015-Mar-20 20:12N 53°59' E 007°24'5 7.9
2015-Mar-20 19:33N 54°01' E 007°33'8 8.4
2015-Mar-20 18:33N 54°02' E 007°47'10 9.7
2015-Mar-20 17:33N 54°01' E 008°03'1511.2
2015-Mar-20 16:14N 53°59' E 008°28'811.8
2015-Mar-20 15:33N 53°56' E 008°40'1010.1
2015-Mar-20 14:33N 53°51' E 008°55'8 8.4
2015-Mar-20 13:33N 53°54' E 009°09'0 0.4
2015-Mar-20 12:33N 53°54' E 009°09'2 2.1
2015-Mar-20 11:33N 53°55' E 009°12'6 6.4
2015-Mar-20 10:33N 54°01' E 009°18'8 6.9
2015-Mar-20 09:22N 54°09' E 009°21'6 6.4
2015-Mar-20 08:23N 54°11' E 009°31'6 5.1
2015-Mar-20 07:10N 54°16' E 009°38'4 6.7
2015-Mar-20 06:31N 54°19' E 009°43'7 7.3
2015-Mar-20 05:32N 54°21' E 009°55'7 7.5
2015-Mar-20 04:33N 54°22' E 010°07'2 1.5
2015-Mar-20 03:33N 54°22' E 010°10'5 4.9
2015-Mar-20 02:33N 54°26' E 010°14'9 9.2
2015-Mar-20 01:33N 54°32' E 010°26'19 9.6
2015-Mar-19 23:33N 54°36' E 010°59'1010.3
2015-Mar-19 22:33N 54°35' E 011°16'1110.9
2015-Mar-19 21:33N 54°30' E 011°33'10 9.6
2015-Mar-19 20:33N 54°27' E 011°49'10 9.8
2015-Mar-19 19:33N 54°27' E 012°06'12 9.5
2015-Mar-19 18:19N 54°37' E 012°16'58 9.7
2015-Mar-19 12:22N 55°01' E 013°47'8 9.7
2015-Mar-19 11:33N 55°04' E 014°00'9 9.3
2015-Mar-19 10:33N 55°11' E 014°12'10 9.7
2015-Mar-19 09:33N 55°18' E 014°23'10 9.9
2015-Mar-19 08:33N 55°25' E 014°34'10 9.9
2015-Mar-19 07:33N 55°31' E 014°49'10 9.6
2015-Mar-19 06:33N 55°35' E 015°04'11 9.9
2015-Mar-19 05:29N 55°41' E 015°20'  

Dump ship's entire track history